createdAt,value
2018-02-20T16:55:42.897Z,27.40
2018-02-20T16:59:54.225Z,25.60
2018-02-20T17:02:20.436Z,24.10
2018-02-20T17:04:47.382Z,23.60
2018-02-20T17:09:17.449Z,22.20
2018-02-20T17:11:43.761Z,22.20
2018-02-20T17:14:10.708Z,21.80
2018-02-20T17:16:36.904Z,21.80
2018-02-20T17:19:03.078Z,21.30
2018-02-20T17:21:29.321Z,21.50
2018-02-20T17:23:55.540Z,21.20
2018-02-20T17:26:35.577Z,20.70
2018-02-20T17:30:49.612Z,20.70
2018-02-20T17:33:15.822Z,21.30
2018-02-20T17:43:46.580Z,21.60
2018-02-20T17:52:01.065Z,21.00
2018-02-20T17:54:27.285Z,20.30
2018-02-20T17:58:27.029Z,20.00
2018-02-20T18:00:53.165Z,20.00
2018-02-20T18:03:19.338Z,20.00
2018-02-20T18:10:34.325Z,19.80
2018-02-20T18:13:00.460Z,19.80
2018-02-20T18:24:20.984Z,25.40
2018-02-20T18:26:47.953Z,23.50
2018-02-20T18:29:14.060Z,23.00
2018-02-20T18:56:05.504Z,27.50
2018-02-20T19:07:21.774Z,19.10
2018-02-20T19:09:48.052Z,19.00
2018-02-20T19:12:14.508Z,19.20
2018-02-20T19:14:40.742Z,18.70
2018-02-20T19:17:06.988Z,18.60
2018-02-20T19:19:33.189Z,18.20
2018-02-20T19:21:59.461Z,18.50
2018-02-20T19:24:25.649Z,18.80
2018-02-20T19:26:51.844Z,18.60
2018-02-20T20:03:55.655Z,19.50
2018-02-20T20:06:21.884Z,18.60
2018-02-20T20:08:48.140Z,19.10
2018-02-20T20:11:14.443Z,19.30
2018-02-20T20:14:14.844Z,19.50
2018-02-20T20:16:41.136Z,19.70
2018-02-20T20:19:08.077Z,19.00
2018-02-20T20:21:34.283Z,19.00
2018-02-20T20:27:57.103Z,20.40
2018-02-20T20:30:23.333Z,20.00
2018-02-20T20:38:07.654Z,8.80
2018-02-20T20:40:33.908Z,11.70
2018-02-20T20:43:00.151Z,15.30
2018-02-20T20:45:26.363Z,18.10
2018-02-20T20:47:53.357Z,26.00
2018-02-20T20:50:19.673Z,26.00
2018-02-20T20:52:45.932Z,29.40
2018-02-20T20:55:12.197Z,33.10
2018-02-20T20:57:38.452Z,36.10
2018-02-20T21:00:04.665Z,38.70
2018-02-20T21:02:31.706Z,45.90
2018-02-20T21:04:57.949Z,46.50
2018-02-20T21:07:24.166Z,47.10
2018-02-20T21:09:50.405Z,46.80
2018-02-20T21:12:16.655Z,46.90
2018-02-20T21:14:42.979Z,48.10
2018-02-20T21:17:09.268Z,48.70
2018-02-20T21:19:35.554Z,49.20
2018-02-20T21:22:01.815Z,49.40
2018-02-20T21:24:28.033Z,50.80
2018-02-20T21:26:55.391Z,50.30
2018-02-20T21:29:21.550Z,51.30
2018-02-20T21:31:47.814Z,51.50
2018-02-20T21:34:14.035Z,51.90
2018-02-20T21:36:40.308Z,51.70
2018-02-20T21:39:06.558Z,52.60
2018-02-20T21:41:32.829Z,53.40
2018-02-20T21:43:59.062Z,53.40
2018-02-20T21:46:25.319Z,52.70
2018-02-20T21:48:51.556Z,52.70
2018-02-20T21:51:18.513Z,52.60
2018-02-20T21:53:44.775Z,52.50
2018-02-20T21:56:11.034Z,52.60
2018-02-20T21:58:37.277Z,53.80
2018-02-20T22:01:03.542Z,54.40
2018-02-20T22:03:30.614Z,54.20
2018-02-20T22:05:57.598Z,53.20
2018-02-20T22:08:23.851Z,53.10
2018-02-20T22:10:50.858Z,53.90
2018-02-20T22:13:17.094Z,53.90
2018-02-20T22:15:44.210Z,51.80
2018-02-20T22:18:10.487Z,51.80
2018-02-20T22:20:36.737Z,51.60
2018-02-20T22:23:03.074Z,51.40
2018-02-20T22:25:29.286Z,51.30
2018-02-20T22:27:55.557Z,51.80
2018-02-20T22:30:21.830Z,51.80
2018-02-20T22:32:48.898Z,54.00
2018-02-20T22:35:15.160Z,53.90
2018-02-20T22:37:41.414Z,52.20
2018-02-20T22:40:07.713Z,52.10
2018-02-20T22:42:34.003Z,52.50
2018-02-20T22:45:00.290Z,52.80
2018-02-20T22:47:26.551Z,52.30
2018-02-20T22:49:52.862Z,51.30
2018-02-20T22:52:19.097Z,51.30
2018-02-20T22:54:46.136Z,52.20
2018-02-20T22:57:13.198Z,50.80
2018-02-20T22:59:39.471Z,51.20
2018-02-20T23:02:05.812Z,52.40
2018-02-20T23:04:32.937Z,53.50
2018-02-20T23:06:59.198Z,53.40
2018-02-20T23:09:25.476Z,53.00
2018-02-20T23:11:51.745Z,52.70
2018-02-20T23:14:18.042Z,52.90
2018-02-20T23:16:45.045Z,53.40
2018-02-20T23:19:11.321Z,53.30
2018-02-20T23:21:37.585Z,52.70
2018-02-20T23:24:03.858Z,53.00
2018-02-20T23:26:30.114Z,53.60
2018-02-20T23:28:56.369Z,52.10
2018-02-20T23:31:22.613Z,54.60
2018-02-20T23:33:48.850Z,55.10
2018-02-20T23:36:15.080Z,54.20
2018-02-20T23:38:41.313Z,54.10
2018-02-20T23:41:07.518Z,52.90
2018-02-20T23:43:33.737Z,51.60
2018-02-20T23:45:59.961Z,50.80
2018-02-20T23:48:26.206Z,50.00
2018-02-20T23:50:58.458Z,50.20
2018-02-20T23:53:24.683Z,49.80
2018-02-20T23:55:51.671Z,49.80
2018-02-20T23:58:17.962Z,49.80
